createdAt,value
2023-01-21T00:00:29.157Z,-0.45
2023-01-21T00:01:29.145Z,-0.49
2023-01-21T00:02:29.175Z,-0.50
2023-01-21T00:03:29.138Z,-0.53
2023-01-21T00:04:29.122Z,-0.52
2023-01-21T00:05:29.120Z,-0.58
2023-01-21T00:06:29.066Z,-0.59
2023-01-21T00:07:29.079Z,-0.59
2023-01-21T00:08:29.074Z,-0.58
2023-01-21T00:09:29.049Z,-0.56
2023-01-21T00:10:29.053Z,-0.56
2023-01-21T00:11:29.022Z,-0.55
2023-01-21T00:12:29.321Z,-0.56
2023-01-21T00:13:29.029Z,-0.59
2023-01-21T00:14:28.997Z,-0.60
2023-01-21T00:15:29.023Z,-0.62
2023-01-21T00:16:28.996Z,-0.63
2023-01-21T00:17:28.955Z,-0.63
2023-01-21T00:18:30.167Z,-0.67
2023-01-21T00:19:28.892Z,-0.70
2023-01-21T00:20:28.911Z,-0.71
2023-01-21T00:21:28.881Z,-0.71
2023-01-21T00:22:28.904Z,-0.71
2023-01-21T00:23:28.867Z,-0.71
2023-01-21T00:24:28.841Z,-0.70
2023-01-21T00:25:28.819Z,-0.70
2023-01-21T00:26:28.864Z,-0.67
2023-01-21T00:27:28.802Z,-0.67
2023-01-21T00:28:28.805Z,-0.65
2023-01-21T00:29:28.798Z,-0.65
2023-01-21T00:30:28.773Z,-0.63
2023-01-21T00:31:28.858Z,-0.63
2023-01-21T00:32:28.795Z,-0.62
2023-01-21T00:33:28.756Z,-0.63
2023-01-21T00:34:29.024Z,-0.65
2023-01-21T00:35:28.711Z,-0.63
2023-01-21T00:36:28.731Z,-0.65
2023-01-21T00:37:28.752Z,-0.63
2023-01-21T00:38:28.837Z,-0.65
2023-01-21T00:39:28.669Z,-0.68
2023-01-21T00:40:28.663Z,-0.68
2023-01-21T00:41:28.665Z,-0.67
2023-01-21T00:42:28.636Z,-0.68
2023-01-21T00:43:28.620Z,-0.68
2023-01-21T00:44:28.644Z,-0.67
2023-01-21T00:45:28.592Z,-0.63
2023-01-21T00:46:28.733Z,-0.62
2023-01-21T00:47:28.578Z,-0.60
2023-01-21T00:48:28.818Z,-0.60
2023-01-21T00:49:28.533Z,-0.58
2023-01-21T00:50:28.523Z,-0.56
2023-01-21T00:51:28.513Z,-0.56
2023-01-21T00:52:28.528Z,-0.55
2023-01-21T00:53:28.478Z,-0.58
2023-01-21T00:54:28.479Z,-0.56
2023-01-21T00:55:28.478Z,-0.58
2023-01-21T00:56:28.467Z,-0.59
2023-01-21T00:57:28.496Z,-0.58
2023-01-21T00:58:28.427Z,-0.59
2023-01-21T00:59:28.426Z,-0.60
2023-01-21T01:00:28.416Z,-0.63
2023-01-21T01:01:28.439Z,-0.62
2023-01-21T01:02:28.416Z,-0.62
2023-01-21T01:03:28.370Z,-0.63
2023-01-21T01:04:28.339Z,-0.65
2023-01-21T01:05:28.331Z,-0.63
2023-01-21T01:06:28.335Z,-0.63
2023-01-21T01:07:28.338Z,-0.67
2023-01-21T01:08:28.316Z,-0.67
2023-01-21T01:09:28.293Z,-0.65
2023-01-21T01:10:28.284Z,-0.65
2023-01-21T01:11:28.331Z,-0.65
2023-01-21T01:12:28.271Z,-0.63
2023-01-21T01:13:28.276Z,-0.65
2023-01-21T01:14:28.227Z,-0.65
2023-01-21T01:15:28.213Z,-0.65
2023-01-21T01:16:28.212Z,-0.67
2023-01-21T01:17:28.206Z,-0.67
2023-01-21T01:18:28.170Z,-0.68
2023-01-21T01:19:28.158Z,-0.70
2023-01-21T01:20:28.155Z,-0.71
2023-01-21T01:21:28.156Z,-0.70
2023-01-21T01:22:28.153Z,-0.68
2023-01-21T01:23:28.144Z,-0.67
2023-01-21T01:24:28.112Z,-0.63
2023-01-21T01:25:28.108Z,-0.63
2023-01-21T01:26:28.106Z,-0.63
2023-01-21T01:27:28.096Z,-0.65
2023-01-21T01:28:28.067Z,-0.65
2023-01-21T01:29:28.067Z,-0.63
2023-01-21T01:30:28.045Z,-0.65
2023-01-21T01:31:28.032Z,-0.63
2023-01-21T01:32:28.027Z,-0.63
2023-01-21T01:33:28.008Z,-0.65
2023-01-21T01:34:27.974Z,-0.63
2023-01-21T01:35:27.995Z,-0.62
2023-01-21T01:36:27.956Z,-0.60
2023-01-21T01:37:27.991Z,-0.59
2023-01-21T01:38:27.953Z,-0.59
2023-01-21T01:39:27.911Z,-0.59
2023-01-21T01:40:27.890Z,-0.60
2023-01-21T01:41:27.897Z,-0.60
2023-01-21T01:42:27.903Z,-0.62
2023-01-21T01:43:27.867Z,-0.62
2023-01-21T01:44:27.835Z,-0.59
2023-01-21T01:45:27.837Z,-0.58
2023-01-21T01:46:27.994Z,-0.58
2023-01-21T01:47:27.849Z,-0.58
2023-01-21T01:48:27.782Z,-0.58
2023-01-21T01:49:27.784Z,-0.56
2023-01-21T01:50:27.764Z,-0.56
2023-01-21T01:51:27.773Z,-0.60
2023-01-21T01:52:27.783Z,-0.60
2023-01-21T01:53:27.744Z,-0.60
2023-01-21T01:54:27.732Z,-0.62
2023-01-21T01:55:27.750Z,-0.59
2023-01-21T01:56:27.720Z,-0.60
2023-01-21T01:57:27.731Z,-0.63
2023-01-21T01:58:27.694Z,-0.65
2023-01-21T01:59:27.666Z,-0.65
2023-01-21T02:00:27.654Z,-0.68
2023-01-21T02:01:27.769Z,-0.68
2023-01-21T02:02:27.630Z,-0.71
2023-01-21T02:03:27.637Z,-0.76
2023-01-21T02:04:27.625Z,-0.78
2023-01-21T02:05:27.589Z,-0.77
2023-01-21T02:06:27.599Z,-0.78
2023-01-21T02:07:27.583Z,-0.77
2023-01-21T02:08:27.567Z,-0.77
2023-01-21T02:09:27.579Z,-0.77
2023-01-21T02:10:27.536Z,-0.76
2023-01-21T02:11:27.511Z,-0.76
2023-01-21T02:12:27.498Z,-0.76
2023-01-21T02:13:27.517Z,-0.74
2023-01-21T02:14:27.484Z,-0.76
2023-01-21T02:15:27.488Z,-0.73
2023-01-21T02:16:27.475Z,-0.74
2023-01-21T02:17:27.479Z,-0.74
2023-01-21T02:18:27.408Z,-0.77
2023-01-21T02:19:27.421Z,-0.77
2023-01-21T02:20:27.397Z,-0.77
2023-01-21T02:21:27.388Z,-0.77
2023-01-21T02:22:27.404Z,-0.77
2023-01-21T02:23:27.443Z,-0.78
2023-01-21T02:24:27.338Z,-0.81
2023-01-21T02:25:27.365Z,-0.85
2023-01-21T02:26:27.350Z,-0.90
2023-01-21T02:27:31.113Z,-0.92
2023-01-21T02:28:27.339Z,-0.92
2023-01-21T02:29:27.311Z,-0.93
2023-01-21T02:30:27.264Z,-0.95
2023-01-21T02:31:27.288Z,-0.95
2023-01-21T02:32:27.254Z,-0.96
2023-01-21T02:33:27.252Z,-0.97
2023-01-21T02:34:27.240Z,-1.00
2023-01-21T02:35:27.212Z,-1.02
2023-01-21T02:36:27.201Z,-1.03
2023-01-21T02:37:27.200Z,-1.07
2023-01-21T02:38:27.191Z,-1.10
2023-01-21T02:39:27.163Z,-1.13
2023-01-21T02:40:27.168Z,-1.15
2023-01-21T02:41:27.158Z,-1.14
2023-01-21T02:42:27.137Z,-1.15
2023-01-21T02:43:27.131Z,-1.17
2023-01-21T02:44:27.100Z,-1.13
2023-01-21T02:45:27.097Z,-1.10
2023-01-21T02:46:27.111Z,-1.10
2023-01-21T02:47:27.133Z,-1.08
2023-01-21T02:48:27.039Z,-1.05
2023-01-21T02:49:27.045Z,-1.05
2023-01-21T02:50:27.037Z,-1.05
2023-01-21T02:51:27.017Z,-1.10
2023-01-21T02:52:27.009Z,-1.10
2023-01-21T02:53:26.989Z,-1.11
2023-01-21T02:54:26.998Z,-1.13
2023-01-21T02:55:27.014Z,-1.11
2023-01-21T02:56:26.940Z,-1.13
2023-01-21T02:57:26.950Z,-1.15
2023-01-21T02:58:26.953Z,-1.18
2023-01-21T02:59:26.932Z,-1.18
2023-01-21T03:00:26.912Z,-1.21
2023-01-21T03:01:26.922Z,-1.23
2023-01-21T03:02:26.917Z,-1.26
2023-01-21T03:03:26.895Z,-1.25
2023-01-21T03:04:26.876Z,-1.28
2023-01-21T03:05:26.896Z,-1.29
2023-01-21T03:06:26.847Z,-1.31
2023-01-21T03:07:26.825Z,-1.33
2023-01-21T03:08:26.821Z,-1.35
2023-01-21T03:09:26.844Z,-1.38
2023-01-21T03:10:26.772Z,-1.38
2023-01-21T03:11:26.813Z,-1.39
2023-01-21T03:12:26.750Z,-1.39
2023-01-21T03:13:26.743Z,-1.41
2023-01-21T03:14:26.713Z,-1.41
2023-01-21T03:15:26.750Z,-1.39
2023-01-21T03:16:26.774Z,-1.39
2023-01-21T03:17:26.729Z,-1.41
2023-01-21T03:18:26.728Z,-1.41
2023-01-21T03:19:26.670Z,-1.43
2023-01-21T03:20:26.663Z,-1.44
2023-01-21T03:21:26.667Z,-1.43
2023-01-21T03:22:26.630Z,-1.46
2023-01-21T03:23:26.619Z,-1.46
2023-01-21T03:24:26.589Z,-1.46
2023-01-21T03:25:26.616Z,-1.47
2023-01-21T03:26:26.606Z,-1.46
2023-01-21T03:27:26.582Z,-1.44
2023-01-21T03:28:26.564Z,-1.44
2023-01-21T03:29:26.570Z,-1.43
2023-01-21T03:30:26.540Z,-1.41
2023-01-21T03:31:26.551Z,-1.41
2023-01-21T03:32:26.511Z,-1.39
2023-01-21T03:33:26.529Z,-1.41
2023-01-21T03:34:26.500Z,-1.41
2023-01-21T03:35:26.480Z,-1.41
2023-01-21T03:36:26.475Z,-1.41
2023-01-21T03:37:26.481Z,-1.46
2023-01-21T03:38:26.415Z,-1.47
2023-01-21T03:39:26.439Z,-1.49
2023-01-21T03:40:26.415Z,-1.49
2023-01-21T03:41:26.429Z,-1.50
2023-01-21T03:42:26.365Z,-1.53
2023-01-21T03:43:26.412Z,-1.56
2023-01-21T03:44:26.369Z,-1.56
2023-01-21T03:45:26.365Z,-1.57
2023-01-21T03:46:26.315Z,-1.61
2023-01-21T03:47:26.350Z,-1.62
2023-01-21T03:48:26.337Z,-1.67
2023-01-21T03:49:26.326Z,-1.65
2023-01-21T03:50:26.270Z,-1.68
2023-01-21T03:51:26.292Z,-1.68
2023-01-21T03:52:26.273Z,-1.68
2023-01-21T03:53:26.280Z,-1.70
2023-01-21T03:54:26.215Z,-1.71
2023-01-21T03:55:26.221Z,-1.70
2023-01-21T03:56:26.221Z,-1.70
2023-01-21T03:57:26.190Z,-1.71
2023-01-21T03:58:26.182Z,-1.72
2023-01-21T03:59:26.194Z,-1.74
2023-01-21T04:00:26.182Z,-1.72
2023-01-21T04:01:26.153Z,-1.74
2023-01-21T04:02:26.196Z,-1.74
2023-01-21T04:03:26.163Z,-1.72
2023-01-21T04:04:26.133Z,-1.71
2023-01-21T04:05:26.123Z,-1.71
2023-01-21T04:06:26.078Z,-1.71
2023-01-21T04:07:26.067Z,-1.72
2023-01-21T04:08:26.069Z,-1.71
2023-01-21T04:09:26.046Z,-1.70
2023-01-21T04:10:26.017Z,-1.70
2023-01-21T04:11:26.043Z,-1.65
2023-01-21T04:12:25.996Z,-1.61
2023-01-21T04:13:26.035Z,-1.61
2023-01-21T04:14:26.012Z,-1.57
2023-01-21T04:15:25.966Z,-1.57
2023-01-21T04:16:25.960Z,-1.57
2023-01-21T04:17:25.972Z,-1.54
2023-01-21T04:18:25.963Z,-1.57
2023-01-21T04:19:25.916Z,-1.59
2023-01-21T04:20:25.909Z,-1.57
2023-01-21T04:21:25.903Z,-1.57
2023-01-21T04:22:25.899Z,-1.54
2023-01-21T04:23:25.928Z,-1.54
2023-01-21T04:24:25.880Z,-1.57
2023-01-21T04:25:25.878Z,-1.59
2023-01-21T04:26:25.857Z,-1.59
2023-01-21T04:27:25.855Z,-1.61
2023-01-21T04:28:25.836Z,-1.61
2023-01-21T04:29:25.807Z,-1.64
2023-01-21T04:30:25.777Z,-1.65
2023-01-21T04:31:25.844Z,-1.62
2023-01-21T04:32:25.741Z,-1.62
2023-01-21T04:33:25.784Z,-1.64
2023-01-21T04:34:25.747Z,-1.68
2023-01-21T04:35:25.746Z,-1.70
2023-01-21T04:36:25.691Z,-1.68
2023-01-21T04:37:25.700Z,-1.68
2023-01-21T04:38:25.690Z,-1.68
2023-01-21T04:39:25.699Z,-1.67
2023-01-21T04:40:34.028Z,-1.65
2023-01-21T04:41:25.699Z,-1.61
2023-01-21T04:42:26.359Z,-1.57
2023-01-21T04:43:26.363Z,-1.56
2023-01-21T04:44:25.602Z,-1.53
2023-01-21T04:45:25.619Z,-1.57
2023-01-21T04:46:25.596Z,-1.57
2023-01-21T04:47:25.598Z,-1.61
2023-01-21T04:48:25.586Z,-1.62
2023-01-21T04:49:25.574Z,-1.62
2023-01-21T04:50:25.526Z,-1.65
2023-01-21T04:51:25.559Z,-1.67
2023-01-21T04:52:25.506Z,-1.68
2023-01-21T04:53:25.508Z,-1.70
2023-01-21T04:54:25.503Z,-1.71
2023-01-21T04:55:26.483Z,-1.70
2023-01-21T04:56:25.456Z,-1.71
2023-01-21T04:57:25.474Z,-1.65
2023-01-21T04:58:25.429Z,-1.64
2023-01-21T04:59:25.430Z,-1.61
2023-01-21T05:00:25.429Z,-1.56
2023-01-21T05:01:25.457Z,-1.54
2023-01-21T05:02:25.396Z,-1.56
2023-01-21T05:03:25.388Z,-1.53
2023-01-21T05:04:25.373Z,-1.53
2023-01-21T05:05:25.373Z,-1.53
2023-01-21T05:06:25.346Z,-1.53
2023-01-21T05:07:25.326Z,-1.54
2023-01-21T05:08:25.339Z,-1.53
2023-01-21T05:09:25.295Z,-1.54
2023-01-21T05:10:25.284Z,-1.54
2023-01-21T05:11:25.256Z,-1.57
2023-01-21T05:12:25.312Z,-1.57
2023-01-21T05:13:25.286Z,-1.59
2023-01-21T05:14:25.280Z,-1.62
2023-01-21T05:15:25.340Z,-1.64
2023-01-21T05:16:25.241Z,-1.64
2023-01-21T05:17:25.232Z,-1.62
2023-01-21T05:18:25.225Z,-1.64
2023-01-21T05:19:25.190Z,-1.62
2023-01-21T05:20:25.163Z,-1.62
2023-01-21T05:21:25.133Z,-1.61
2023-01-21T05:22:25.166Z,-1.62
2023-01-21T05:23:25.129Z,-1.62
2023-01-21T05:24:25.127Z,-1.65
2023-01-21T05:25:25.088Z,-1.67
2023-01-21T05:26:25.112Z,-1.70
2023-01-21T05:27:25.086Z,-1.72
2023-01-21T05:28:25.073Z,-1.72
2023-01-21T05:29:25.031Z,-1.74
2023-01-21T05:30:25.044Z,-1.75
2023-01-21T05:31:25.246Z,-1.77
2023-01-21T05:32:25.033Z,-1.80
2023-01-21T05:33:25.002Z,-1.82
2023-01-21T05:34:24.988Z,-1.80
2023-01-21T05:35:24.959Z,-1.82
2023-01-21T05:36:24.992Z,-1.83
2023-01-21T05:37:24.937Z,-1.82
2023-01-21T05:38:24.972Z,-1.83
2023-01-21T05:39:24.907Z,-1.86
2023-01-21T05:40:24.943Z,-1.86
2023-01-21T05:41:24.884Z,-1.88
2023-01-21T05:42:24.912Z,-1.88
2023-01-21T05:43:24.899Z,-1.89
2023-01-21T05:44:24.890Z,-1.86
2023-01-21T05:45:24.863Z,-1.88
2023-01-21T05:46:24.882Z,-1.86
2023-01-21T05:47:24.835Z,-1.88
2023-01-21T05:48:24.876Z,-1.88
2023-01-21T05:49:24.795Z,-1.86
2023-01-21T05:50:24.809Z,-1.88
2023-01-21T05:51:24.851Z,-1.86
2023-01-21T05:52:24.762Z,-1.86
2023-01-21T05:53:24.751Z,-1.89
2023-01-21T05:54:24.739Z,-1.89
2023-01-21T05:55:24.734Z,-1.90
2023-01-21T05:56:24.738Z,-1.90
2023-01-21T05:57:24.717Z,-1.90
2023-01-21T05:58:24.712Z,-1.90
2023-01-21T05:59:24.687Z,-1.93
2023-01-21T06:00:24.685Z,-1.93
2023-01-21T06:01:24.675Z,-1.92
2023-01-21T06:02:24.694Z,-1.92
2023-01-21T06:03:24.693Z,-1.92
2023-01-21T06:04:24.625Z,-1.93
2023-01-21T06:05:24.589Z,-1.92
2023-01-21T06:06:24.646Z,-1.92
2023-01-21T06:07:24.558Z,-1.93
2023-01-21T06:08:24.570Z,-1.96
2023-01-21T06:09:24.562Z,-1.98
2023-01-21T06:10:24.537Z,-1.98
2023-01-21T06:11:24.519Z,-1.96
2023-01-21T06:12:24.957Z,-1.96
2023-01-21T06:13:24.509Z,-1.98
2023-01-21T06:14:24.486Z,-1.98
2023-01-21T06:15:24.482Z,-2.01
2023-01-21T06:16:24.466Z,-2.01
2023-01-21T06:17:24.480Z,-2.01
2023-01-21T06:18:24.455Z,-2.00
2023-01-21T06:19:24.413Z,-2.01
2023-01-21T06:20:24.417Z,-1.98
2023-01-21T06:21:24.414Z,-1.98
2023-01-21T06:22:24.420Z,-1.93
2023-01-21T06:23:24.423Z,-1.93
2023-01-21T06:24:24.373Z,-1.89
2023-01-21T06:25:24.372Z,-1.88
2023-01-21T06:26:26.867Z,-1.85
2023-01-21T06:27:24.312Z,-1.85
2023-01-21T06:28:24.357Z,-1.85
2023-01-21T06:29:24.334Z,-1.88
2023-01-21T06:30:24.318Z,-1.89
2023-01-21T06:31:24.413Z,-1.90
2023-01-21T06:32:24.288Z,-1.90
2023-01-21T06:33:24.261Z,-1.90
2023-01-21T06:34:24.269Z,-1.90
2023-01-21T06:35:24.220Z,-1.89
2023-01-21T06:36:24.266Z,-1.88
2023-01-21T06:37:24.190Z,-1.88
2023-01-21T06:38:24.238Z,-1.89
2023-01-21T06:39:24.192Z,-1.89
2023-01-21T06:40:24.220Z,-1.92
2023-01-21T06:41:24.170Z,-1.93
2023-01-21T06:42:24.193Z,-1.93
2023-01-21T06:43:24.128Z,-1.95
2023-01-21T06:44:24.153Z,-1.98
2023-01-21T06:45:24.151Z,-1.98
2023-01-21T06:46:24.211Z,-2.00
2023-01-21T06:47:24.100Z,-2.01
2023-01-21T06:48:24.121Z,-2.01
2023-01-21T06:49:24.037Z,-2.04
2023-01-21T06:50:24.036Z,-2.06
2023-01-21T06:51:24.042Z,-2.04
2023-01-21T06:52:24.048Z,-2.03
2023-01-21T06:53:24.012Z,-2.01
2023-01-21T06:54:24.024Z,-2.01
2023-01-21T06:55:23.994Z,-2.01
2023-01-21T06:56:23.964Z,-2.00
2023-01-21T06:57:23.943Z,-2.01
2023-01-21T06:58:23.999Z,-2.01
2023-01-21T06:59:23.916Z,-2.01
2023-01-21T07:00:23.944Z,-2.03
2023-01-21T07:01:23.938Z,-2.03
2023-01-21T07:02:23.960Z,-2.04
2023-01-21T07:03:23.929Z,-2.04
2023-01-21T07:04:23.885Z,-2.06
2023-01-21T07:05:23.938Z,-2.07
2023-01-21T07:06:23.851Z,-2.06
2023-01-21T07:07:23.868Z,-2.04
2023-01-21T07:08:24.562Z,-2.04
2023-01-21T07:09:23.824Z,-2.06
2023-01-21T07:10:23.815Z,-2.01
2023-01-21T07:11:23.796Z,-1.98
2023-01-21T07:12:23.848Z,-1.95
2023-01-21T07:13:23.795Z,-1.93
2023-01-21T07:14:23.790Z,-1.90
2023-01-21T07:15:23.857Z,-1.92
2023-01-21T07:16:23.800Z,-1.95
2023-01-21T07:17:23.750Z,-1.95
2023-01-21T07:18:23.924Z,-1.93
2023-01-21T07:19:23.706Z,-1.96
2023-01-21T07:20:23.727Z,-1.98
2023-01-21T07:21:23.664Z,-1.95
2023-01-21T07:22:23.670Z,-1.93
2023-01-21T07:23:23.823Z,-1.90
2023-01-21T07:24:23.692Z,-1.88
2023-01-21T07:25:23.595Z,-1.83
2023-01-21T07:26:23.612Z,-1.83
2023-01-21T07:27:23.595Z,-1.78
2023-01-21T07:28:23.570Z,-1.75
2023-01-21T07:29:23.581Z,-1.77
2023-01-21T07:30:23.543Z,-1.78
2023-01-21T07:31:23.668Z,-1.78
2023-01-21T07:32:23.545Z,-1.78
2023-01-21T07:33:23.511Z,-1.80
2023-01-21T07:34:23.574Z,-1.78
2023-01-21T07:35:23.493Z,-1.80
2023-01-21T07:36:23.473Z,-1.78
2023-01-21T07:37:23.472Z,-1.77
2023-01-21T07:38:23.451Z,-1.75
2023-01-21T07:39:23.462Z,-1.77
2023-01-21T07:40:23.443Z,-1.77
2023-01-21T07:41:23.421Z,-1.77
2023-01-21T07:42:23.390Z,-1.78
2023-01-21T07:43:23.360Z,-1.78
2023-01-21T07:44:23.396Z,-1.78
2023-01-21T07:45:23.426Z,-1.78
2023-01-21T07:46:23.380Z,-1.77
2023-01-21T07:47:23.330Z,-1.74
2023-01-21T07:48:23.323Z,-1.74
2023-01-21T07:49:23.319Z,-1.74
2023-01-21T07:50:23.356Z,-1.71
2023-01-21T07:51:23.346Z,-1.70
2023-01-21T07:52:23.296Z,-1.70
2023-01-21T07:53:23.273Z,-1.72
2023-01-21T07:54:23.282Z,-1.72
2023-01-21T07:55:23.225Z,-1.71
2023-01-21T07:56:23.254Z,-1.71
2023-01-21T07:57:23.223Z,-1.74
2023-01-21T07:58:23.191Z,-1.74
2023-01-21T07:59:23.185Z,-1.75
2023-01-21T08:00:23.192Z,-1.75
2023-01-21T08:01:25.366Z,-1.74
2023-01-21T08:02:23.246Z,-1.74
2023-01-21T08:03:23.151Z,-1.72
2023-01-21T08:04:23.170Z,-1.71
2023-01-21T08:05:23.120Z,-1.72
2023-01-21T08:06:23.106Z,-1.72
2023-01-21T08:07:23.068Z,-1.72
2023-01-21T08:08:23.127Z,-1.71
2023-01-21T08:09:23.290Z,-1.72
2023-01-21T08:10:23.079Z,-1.70
2023-01-21T08:11:23.041Z,-1.68
2023-01-21T08:12:23.206Z,-1.67
2023-01-21T08:13:23.035Z,-1.67
2023-01-21T08:14:23.022Z,-1.67
2023-01-21T08:15:22.990Z,-1.67
2023-01-21T08:16:23.024Z,-1.64
2023-01-21T08:17:22.965Z,-1.62
2023-01-21T08:18:22.968Z,-1.59
2023-01-21T08:19:22.947Z,-1.56
2023-01-21T08:20:22.968Z,-1.54
2023-01-21T08:21:32.280Z,-1.54
2023-01-21T08:22:31.490Z,-1.56
2023-01-21T08:23:22.898Z,-1.54
2023-01-21T08:24:22.915Z,-1.51
2023-01-21T08:25:22.846Z,-1.51
2023-01-21T08:26:25.514Z,-1.50
2023-01-21T08:27:22.848Z,-1.50
2023-01-21T08:28:22.849Z,-1.49
2023-01-21T08:29:22.841Z,-1.49
2023-01-21T08:30:22.881Z,-1.46
2023-01-21T08:31:22.810Z,-1.44
2023-01-21T08:32:22.777Z,-1.43
2023-01-21T08:33:22.744Z,-1.41
2023-01-21T08:34:22.747Z,-1.39
2023-01-21T08:35:22.742Z,-1.38
2023-01-21T08:36:22.716Z,-1.38
2023-01-21T08:37:22.847Z,-1.35
2023-01-21T08:38:22.686Z,-1.33
2023-01-21T08:39:22.707Z,-1.32
2023-01-21T08:40:22.705Z,-1.33
2023-01-21T08:41:22.676Z,-1.31
2023-01-21T08:42:22.783Z,-1.29
2023-01-21T08:43:22.623Z,-1.26
2023-01-21T08:44:22.630Z,-1.23
2023-01-21T08:45:22.785Z,-1.21
2023-01-21T08:46:22.619Z,-1.20
2023-01-21T08:47:22.571Z,-1.20
2023-01-21T08:48:22.634Z,-1.18
2023-01-21T08:49:22.564Z,-1.17
2023-01-21T08:50:22.645Z,-1.17
2023-01-21T08:51:22.646Z,-1.17
2023-01-21T08:52:22.552Z,-1.15
2023-01-21T08:53:22.537Z,-1.11
2023-01-21T08:54:22.517Z,-1.07
2023-01-21T08:55:22.474Z,-1.00
2023-01-21T08:56:22.489Z,-0.96
2023-01-21T08:57:22.486Z,-0.92
2023-01-21T08:58:22.478Z,-0.86
2023-01-21T08:59:22.466Z,-0.89
2023-01-21T09:00:22.493Z,-0.89
2023-01-21T09:01:22.468Z,-0.89
2023-01-21T09:02:22.438Z,-0.90
2023-01-21T09:03:22.405Z,-0.90
2023-01-21T09:04:22.419Z,-0.90
2023-01-21T09:05:22.358Z,-0.89
2023-01-21T09:06:22.360Z,-0.89
2023-01-21T09:07:22.337Z,-0.86
2023-01-21T09:08:22.319Z,-0.86
2023-01-21T09:09:22.369Z,-0.83
2023-01-21T09:10:22.325Z,-0.81
2023-01-21T09:11:22.324Z,-0.80
2023-01-21T09:12:22.273Z,-0.78
2023-01-21T09:13:22.248Z,-0.78
2023-01-21T09:14:22.256Z,-0.74
2023-01-21T09:15:22.262Z,-0.74
2023-01-21T09:16:22.305Z,-0.73
2023-01-21T09:17:22.202Z,-0.71
2023-01-21T09:18:22.252Z,-0.70
2023-01-21T09:19:22.175Z,-0.68
2023-01-21T09:20:22.210Z,-0.65
2023-01-21T09:21:22.177Z,-0.63
2023-01-21T09:22:22.160Z,-0.63
2023-01-21T09:23:22.163Z,-0.60
2023-01-21T09:24:22.150Z,-0.58
2023-01-21T09:25:23.326Z,-0.58
2023-01-21T09:26:22.111Z,-0.56
2023-01-21T09:27:22.109Z,-0.58
2023-01-21T09:28:22.103Z,-0.60
2023-01-21T09:29:22.089Z,-0.59
2023-01-21T09:30:22.072Z,-0.59
2023-01-21T09:31:22.096Z,-0.58
2023-01-21T09:32:22.046Z,-0.58
2023-01-21T09:33:22.051Z,-0.55
2023-01-21T09:34:22.031Z,-0.56
2023-01-21T09:35:22.016Z,-0.56
2023-01-21T09:36:22.056Z,-0.55
2023-01-21T09:37:21.988Z,-0.53
2023-01-21T09:38:21.960Z,-0.49
2023-01-21T09:39:21.974Z,-0.49
2023-01-21T09:40:21.908Z,-0.47
2023-01-21T09:41:21.977Z,-0.47
2023-01-21T09:42:21.900Z,-0.47
2023-01-21T09:43:21.877Z,-0.45
2023-01-21T09:44:21.930Z,-0.41
2023-01-21T09:45:21.933Z,-0.41
2023-01-21T09:46:21.871Z,-0.41
2023-01-21T09:47:21.894Z,-0.38
2023-01-21T09:48:21.835Z,-0.38
2023-01-21T09:49:21.841Z,-0.34
2023-01-21T09:50:21.853Z,-0.34
2023-01-21T09:51:21.806Z,-0.32
2023-01-21T09:52:21.792Z,-0.31
2023-01-21T09:53:21.787Z,-0.30
2023-01-21T09:54:30.033Z,-0.27
2023-01-21T09:55:21.762Z,-0.24
2023-01-21T09:56:21.716Z,-0.24
2023-01-21T09:57:21.725Z,-0.23
2023-01-21T09:58:21.745Z,-0.21
2023-01-21T09:59:21.713Z,-0.21
2023-01-21T10:00:21.661Z,-0.21
2023-01-21T10:01:21.733Z,-0.21
2023-01-21T10:02:21.655Z,-0.17
2023-01-21T10:03:21.632Z,-0.19
2023-01-21T10:04:21.671Z,-0.16
2023-01-21T10:05:21.616Z,-0.19
2023-01-21T10:06:21.582Z,-0.19
2023-01-21T10:07:21.622Z,-0.17
2023-01-21T10:08:21.571Z,-0.13
2023-01-21T10:09:21.570Z,-0.12
2023-01-21T10:10:21.541Z,-0.09
2023-01-21T10:11:21.559Z,-0.09
2023-01-21T10:12:21.539Z,-0.08
2023-01-21T10:13:21.542Z,-0.08
2023-01-21T10:14:21.520Z,-0.06
2023-01-21T10:15:21.490Z,-0.05
2023-01-21T10:16:21.490Z,-0.05
2023-01-21T10:17:21.536Z,-0.05
2023-01-21T10:18:21.455Z,-0.05
2023-01-21T10:19:21.494Z,-0.05
2023-01-21T10:20:21.437Z,-0.02
2023-01-21T10:21:21.683Z,-0.01
2023-01-21T10:22:21.414Z,0.02
2023-01-21T10:23:21.427Z,0.02
2023-01-21T10:24:21.407Z,0.04
2023-01-21T10:25:21.401Z,0.02
2023-01-21T10:26:21.354Z,0.02
2023-01-21T10:27:21.373Z,0.04
2023-01-21T10:28:21.353Z,0.04
2023-01-21T10:29:21.342Z,0.05
2023-01-21T10:30:21.334Z,0.05
2023-01-21T10:31:21.440Z,0.07
2023-01-21T10:32:21.266Z,0.07
2023-01-21T10:33:21.287Z,0.12
2023-01-21T10:34:21.236Z,0.13
2023-01-21T10:35:21.249Z,0.13
2023-01-21T10:36:21.224Z,0.16
2023-01-21T10:37:21.225Z,0.16
2023-01-21T10:38:21.241Z,0.16
2023-01-21T10:39:21.543Z,0.17
2023-01-21T10:40:21.218Z,0.20
2023-01-21T10:41:21.223Z,0.22
2023-01-21T10:42:21.191Z,0.26
2023-01-21T10:43:21.173Z,0.30
2023-01-21T10:44:21.162Z,0.28
2023-01-21T10:45:21.179Z,0.31
2023-01-21T10:46:21.191Z,0.31
2023-01-21T10:47:21.140Z,0.33
2023-01-21T10:48:21.109Z,0.33
2023-01-21T10:49:21.106Z,0.34
2023-01-21T10:50:21.065Z,0.34
2023-01-21T10:51:21.162Z,0.35
2023-01-21T10:52:21.030Z,0.37
2023-01-21T10:53:21.039Z,0.38
2023-01-21T10:54:22.647Z,0.38
2023-01-21T10:55:21.005Z,0.41
2023-01-21T10:56:20.985Z,0.43
2023-01-21T10:57:20.969Z,0.45
2023-01-21T10:58:20.937Z,0.49
2023-01-21T10:59:20.986Z,0.52
2023-01-21T11:00:20.917Z,0.59
2023-01-21T11:01:20.964Z,0.62
2023-01-21T11:02:21.026Z,0.64
2023-01-21T11:03:20.914Z,0.67
2023-01-21T11:04:20.903Z,0.63
2023-01-21T11:05:20.868Z,0.62
2023-01-21T11:06:20.866Z,0.60
2023-01-21T11:07:20.861Z,0.62
2023-01-21T11:08:20.845Z,0.60
2023-01-21T11:09:20.870Z,0.63
2023-01-21T11:10:20.863Z,0.63
2023-01-21T11:11:20.786Z,0.64
2023-01-21T11:12:20.799Z,0.60
2023-01-21T11:13:20.775Z,0.63
2023-01-21T11:14:21.328Z,0.63
2023-01-21T11:15:20.853Z,0.67
2023-01-21T11:16:20.758Z,0.68
2023-01-21T11:17:20.987Z,0.70
2023-01-21T11:18:20.719Z,0.70
2023-01-21T11:19:20.848Z,0.68
2023-01-21T11:20:21.836Z,0.68
2023-01-21T11:21:20.674Z,0.71
2023-01-21T11:22:20.647Z,0.71
2023-01-21T11:23:20.668Z,0.72
2023-01-21T11:24:20.612Z,0.72
2023-01-21T11:25:20.643Z,0.71
2023-01-21T11:26:20.627Z,0.72
2023-01-21T11:27:20.626Z,0.74
2023-01-21T11:28:20.574Z,0.75
2023-01-21T11:29:20.601Z,0.74
2023-01-21T11:30:40.385Z,0.75
2023-01-21T11:31:21.613Z,0.77
2023-01-21T11:32:20.734Z,0.77
2023-01-21T11:33:20.518Z,0.77
2023-01-21T11:34:20.516Z,0.77
2023-01-21T11:35:20.541Z,0.77
2023-01-21T11:36:20.499Z,0.77
2023-01-21T11:37:20.522Z,0.78
2023-01-21T11:38:20.448Z,0.80
2023-01-21T11:39:20.472Z,0.81
2023-01-21T11:40:21.164Z,0.82
2023-01-21T11:41:20.445Z,0.84
2023-01-21T11:42:20.455Z,0.89
2023-01-21T11:43:20.406Z,0.90
2023-01-21T11:44:20.404Z,0.92
2023-01-21T11:45:20.404Z,0.92
2023-01-21T11:46:20.463Z,0.93
2023-01-21T11:47:20.347Z,0.95
2023-01-21T11:48:20.325Z,0.96
2023-01-21T11:49:20.354Z,0.95
2023-01-21T11:50:20.619Z,0.95
2023-01-21T11:51:20.353Z,0.96
2023-01-21T11:52:20.310Z,0.98
2023-01-21T11:53:20.291Z,0.99
2023-01-21T11:54:20.287Z,0.99
2023-01-21T11:55:20.252Z,0.99
2023-01-21T11:56:20.237Z,0.99
2023-01-21T11:57:20.308Z,1.00
2023-01-21T11:58:20.271Z,1.00
2023-01-21T11:59:20.202Z,1.00
2023-01-21T12:00:20.192Z,1.02
2023-01-21T12:01:20.173Z,1.04
2023-01-21T12:02:20.214Z,1.07
2023-01-21T12:03:20.162Z,1.08
2023-01-21T12:04:20.137Z,1.10
2023-01-21T12:05:20.119Z,1.11
2023-01-21T12:06:20.124Z,1.13
2023-01-21T12:07:20.119Z,1.13
2023-01-21T12:08:20.089Z,1.11
2023-01-21T12:09:20.069Z,1.16
2023-01-21T12:10:20.073Z,1.16
2023-01-21T12:11:20.077Z,1.16
2023-01-21T12:12:20.034Z,1.18
2023-01-21T12:13:20.054Z,1.20
2023-01-21T12:14:20.007Z,1.21
2023-01-21T12:15:19.988Z,1.20
2023-01-21T12:16:20.048Z,1.21
2023-01-21T12:17:19.989Z,1.24
2023-01-21T12:18:19.985Z,1.21
2023-01-21T12:19:19.936Z,1.25
2023-01-21T12:20:20.034Z,1.25
2023-01-21T12:21:19.942Z,1.26
2023-01-21T12:22:20.656Z,1.26
2023-01-21T12:23:20.529Z,1.29
2023-01-21T12:24:19.885Z,1.28
2023-01-21T12:25:19.863Z,1.29
2023-01-21T12:26:19.873Z,1.29
2023-01-21T12:27:19.843Z,1.31
2023-01-21T12:28:19.852Z,1.28
2023-01-21T12:29:20.734Z,1.28
2023-01-21T12:30:20.057Z,1.25
2023-01-21T12:31:19.892Z,1.29
2023-01-21T12:32:21.617Z,1.28
2023-01-21T12:33:19.795Z,1.29
2023-01-21T12:34:19.752Z,1.31
2023-01-21T12:35:20.077Z,1.31
2023-01-21T12:36:19.758Z,1.32
2023-01-21T12:37:19.739Z,1.32
2023-01-21T12:38:19.717Z,1.32
2023-01-21T12:39:19.721Z,1.35
2023-01-21T12:40:19.888Z,1.38
2023-01-21T12:41:19.744Z,1.36
2023-01-21T12:42:19.642Z,1.36
2023-01-21T12:43:19.652Z,1.38
2023-01-21T12:44:19.618Z,1.39
2023-01-21T12:45:19.959Z,1.43
2023-01-21T12:46:19.671Z,1.49
2023-01-21T12:47:19.604Z,1.49
2023-01-21T12:48:19.598Z,1.52
2023-01-21T12:49:19.582Z,1.50
2023-01-21T12:50:19.606Z,1.52
2023-01-21T12:51:19.571Z,1.52
2023-01-21T12:52:19.525Z,1.52
2023-01-21T12:53:19.524Z,1.53
2023-01-21T12:54:19.533Z,1.53
2023-01-21T12:55:19.972Z,1.53
2023-01-21T12:56:19.477Z,1.54
2023-01-21T12:57:19.503Z,1.54